sensor_id;sensor_type;location;lat;lon;timestamp;P1;durP1;ratioP1;P2;durP2;ratioP2
41099;SDS011;26844;53.686;-6.346;2024-01-30T00:01:19;9.25;;;8.95;;
41099;SDS011;26844;53.686;-6.346;2024-01-30T00:03:44;8.93;;;8.63;;
41099;SDS011;26844;53.686;-6.346;2024-01-30T00:06:10;8.20;;;7.90;;
41099;SDS011;26844;53.686;-6.346;2024-01-30T00:08:35;8.90;;;8.60;;
41099;SDS011;26844;53.686;-6.346;2024-01-30T00:11:00;8.82;;;8.52;;
41099;SDS011;26844;53.686;-6.346;2024-01-30T00:13:25;8.60;;;8.30;;
41099;SDS011;26844;53.686;-6.346;2024-01-30T00:15:51;8.50;;;8.20;;
41099;SDS011;26844;53.686;-6.346;2024-01-30T00:18:16;8.65;;;8.35;;
41099;SDS011;26844;53.686;-6.346;2024-01-30T00:20:41;8.27;;;7.97;;
41099;SDS011;26844;53.686;-6.346;2024-01-30T00:23:07;9.10;;;8.80;;
41099;SDS011;26844;53.686;-6.346;2024-01-30T00:25:33;9.18;;;8.88;;
41099;SDS011;26844;53.686;-6.346;2024-01-30T00:27:58;8.55;;;8.25;;
41099;SDS011;26844;53.686;-6.346;2024-01-30T00:30:23;9.00;;;8.70;;
41099;SDS011;26844;53.686;-6.346;2024-01-30T00:32:49;9.07;;;8.77;;
41099;SDS011;26844;53.686;-6.346;2024-01-30T00:35:14;8.95;;;8.65;;
41099;SDS011;26844;53.686;-6.346;2024-01-30T00:37:39;8.88;;;8.57;;
41099;SDS011;26844;53.686;-6.346;2024-01-30T00:40:05;8.50;;;8.20;;
41099;SDS011;26844;53.686;-6.346;2024-01-30T00:42:31;8.50;;;8.20;;
41099;SDS011;26844;53.686;-6.346;2024-01-30T00:44:56;8.90;;;8.60;;
41099;SDS011;26844;53.686;-6.346;2024-01-30T00:47:21;8.82;;;8.52;;
41099;SDS011;26844;53.686;-6.346;2024-01-30T00:49:46;8.40;;;8.10;;
41099;SDS011;26844;53.686;-6.346;2024-01-30T00:52:12;8.90;;;8.60;;
41099;SDS011;26844;53.686;-6.346;2024-01-30T00:54:37;9.15;;;8.85;;
41099;SDS011;26844;53.686;-6.346;2024-01-30T00:57:02;9.52;;;9.15;;
41099;SDS011;26844;53.686;-6.346;2024-01-30T00:59:28;9.40;;;9.10;;
41099;SDS011;26844;53.686;-6.346;2024-01-30T01:01:53;9.40;;;9.10;;
41099;SDS011;26844;53.686;-6.346;2024-01-30T01:04:18;9.80;;;9.40;;
41099;SDS011;26844;53.686;-6.346;2024-01-30T01:06:43;10.68;;;10.27;;
41099;SDS011;26844;53.686;-6.346;2024-01-30T01:09:10;10.52;;;10.13;;
41099;SDS011;26844;53.686;-6.346;2024-01-30T01:11:35;10.30;;;9.90;;
41099;SDS011;26844;53.686;-6.346;2024-01-30T01:14:00;10.60;;;10.20;;
41099;SDS011;26844;53.686;-6.346;2024-01-30T01:16:26;10.80;;;10.40;;
41099;SDS011;26844;53.686;-6.346;2024-01-30T01:18:51;11.23;;;10.82;;
41099;SDS011;26844;53.686;-6.346;2024-01-30T01:21:17;10.82;;;10.43;;
41099;SDS011;26844;53.686;-6.346;2024-01-30T01:23:42;10.57;;;10.18;;
41099;SDS011;26844;53.686;-6.346;2024-01-30T01:26:08;10.65;;;10.25;;
41099;SDS011;26844;53.686;-6.346;2024-01-30T01:28:34;10.35;;;9.95;;
41099;SDS011;26844;53.686;-6.346;2024-01-30T01:31:00;10.25;;;9.85;;
41099;SDS011;26844;53.686;-6.346;2024-01-30T01:33:30;10.20;;;9.80;;
41099;SDS011;26844;53.686;-6.346;2024-01-30T01:35:55;11.00;;;10.60;;
41099;SDS011;26844;53.686;-6.346;2024-01-30T01:38:20;10.77;;;10.38;;
41099;SDS011;26844;53.686;-6.346;2024-01-30T01:40:46;10.50;;;10.10;;
41099;SDS011;26844;53.686;-6.346;2024-01-30T01:43:11;10.10;;;9.70;;
41099;SDS011;26844;53.686;-6.346;2024-01-30T01:45:36;10.10;;;9.70;;
41099;SDS011;26844;53.686;-6.346;2024-01-30T01:48:01;10.15;;;9.75;;
41099;SDS011;26844;53.686;-6.346;2024-01-30T01:50:27;10.38;;;9.98;;
41099;SDS011;26844;53.686;-6.346;2024-01-30T01:52:52;10.05;;;9.65;;
41099;SDS011;26844;53.686;-6.346;2024-01-30T01:55:20;10.13;;;9.73;;
41099;SDS011;26844;53.686;-6.346;2024-01-30T01:57:52;10.18;;;9.77;;
41099;SDS011;26844;53.686;-6.346;2024-01-30T02:00:17;10.30;;;9.90;;
41099;SDS011;26844;53.686;-6.346;2024-01-30T02:02:44;10.57;;;10.18;;
41099;SDS011;26844;53.686;-6.346;2024-01-30T02:05:10;10.60;;;10.20;;
41099;SDS011;26844;53.686;-6.346;2024-01-30T02:07:36;11.07;;;10.68;;
41099;SDS011;26844;53.686;-6.346;2024-01-30T02:10:01;11.40;;;11.00;;
41099;SDS011;26844;53.686;-6.346;2024-01-30T02:12:26;11.20;;;10.80;;
41099;SDS011;26844;53.686;-6.346;2024-01-30T02:14:51;11.48;;;11.07;;
41099;SDS011;26844;53.686;-6.346;2024-01-30T02:17:18;12.10;;;11.60;;
41099;SDS011;26844;53.686;-6.346;2024-01-30T02:19:44;11.70;;;11.30;;
41099;SDS011;26844;53.686;-6.346;2024-01-30T02:22:09;12.23;;;11.73;;
41099;SDS011;26844;53.686;-6.346;2024-01-30T02:24:34;12.10;;;11.60;;
41099;SDS011;26844;53.686;-6.346;2024-01-30T02:26:59;11.80;;;11.40;;
41099;SDS011;26844;53.686;-6.346;2024-01-30T02:29:25;12.00;;;11.50;;
41099;SDS011;26844;53.686;-6.346;2024-01-30T02:31:50;12.00;;;11.50;;
41099;SDS011;26844;53.686;-6.346;2024-01-30T02:34:15;12.93;;;12.43;;
41099;SDS011;26844;53.686;-6.346;2024-01-30T02:36:44;13.18;;;12.68;;
41099;SDS011;26844;53.686;-6.346;2024-01-30T02:39:09;13.68;;;13.18;;
41099;SDS011;26844;53.686;-6.346;2024-01-30T02:41:34;12.95;;;12.45;;
41099;SDS011;26844;53.686;-6.346;2024-01-30T02:44:00;13.77;;;13.27;;
41099;SDS011;26844;53.686;-6.346;2024-01-30T02:46:25;14.13;;;13.52;;
41099;SDS011;26844;53.686;-6.346;2024-01-30T02:48:50;13.82;;;13.32;;
41099;SDS011;26844;53.686;-6.346;2024-01-30T02:51:16;14.35;;;13.75;;
41099;SDS011;26844;53.686;-6.346;2024-01-30T02:53:41;14.85;;;14.25;;
41099;SDS011;26844;53.686;-6.346;2024-01-30T02:56:07;14.90;;;14.30;;
41099;SDS011;26844;53.686;-6.346;2024-01-30T03:00:59;15.32;;;14.73;;
41099;SDS011;26844;53.686;-6.346;2024-01-30T03:03:25;15.32;;;14.73;;
41099;SDS011;26844;53.686;-6.346;2024-01-30T03:05:50;15.80;;;15.20;;
41099;SDS011;26844;53.686;-6.346;2024-01-30T03:08:15;16.27;;;15.57;;
41099;SDS011;26844;53.686;-6.346;2024-01-30T03:10:40;15.85;;;15.25;;
41099;SDS011;26844;53.686;-6.346;2024-01-30T03:13:06;15.50;;;14.90;;
41099;SDS011;26844;53.686;-6.346;2024-01-30T03:15:31;15.90;;;15.30;;
41099;SDS011;26844;53.686;-6.346;2024-01-30T03:17:56;15.60;;;15.00;;
41099;SDS011;26844;53.686;-6.346;2024-01-30T03:20:21;16.92;;;16.23;;
41099;SDS011;26844;53.686;-6.346;2024-01-30T03:22:46;16.92;;;16.23;;
41099;SDS011;26844;53.686;-6.346;2024-01-30T03:25:12;16.65;;;15.95;;
41099;SDS011;26844;53.686;-6.346;2024-01-30T03:27:37;16.67;;;15.98;;
41099;SDS011;26844;53.686;-6.346;2024-01-30T03:30:02;16.45;;;15.75;;
41099;SDS011;26844;53.686;-6.346;2024-01-30T03:32:28;17.20;;;16.50;;
41099;SDS011;26844;53.686;-6.346;2024-01-30T03:34:53;17.27;;;16.58;;
41099;SDS011;26844;53.686;-6.346;2024-01-30T03:37:18;16.77;;;16.08;;
41099;SDS011;26844;53.686;-6.346;2024-01-30T03:42:11;17.08;;;16.38;;
41099;SDS011;26844;53.686;-6.346;2024-01-30T03:44:36;17.30;;;16.60;;
41099;SDS011;26844;53.686;-6.346;2024-01-30T03:47:02;17.48;;;16.77;;
41099;SDS011;26844;53.686;-6.346;2024-01-30T03:49:27;16.90;;;16.20;;
41099;SDS011;26844;53.686;-6.346;2024-01-30T03:51:52;17.30;;;16.60;;
41099;SDS011;26844;53.686;-6.346;2024-01-30T03:54:18;17.35;;;16.65;;
41099;SDS011;26844;53.686;-6.346;2024-01-30T03:56:43;17.38;;;16.67;;
41099;SDS011;26844;53.686;-6.346;2024-01-30T03:59:08;17.15;;;16.45;;
41099;SDS011;26844;53.686;-6.346;2024-01-30T04:01:33;16.30;;;15.60;;
41099;SDS011;26844;53.686;-6.346;2024-01-30T04:03:59;16.65;;;15.95;;
41099;SDS011;26844;53.686;-6.346;2024-01-30T04:06:24;16.70;;;16.00;;
41099;SDS011;26844;53.686;-6.346;2024-01-30T04:08:49;17.02;;;16.33;;
41099;SDS011;26844;53.686;-6.346;2024-01-30T04:11:14;17.15;;;16.45;;
41099;SDS011;26844;53.686;-6.346;2024-01-30T04:13:40;17.35;;;16.65;;
41099;SDS011;26844;53.686;-6.346;2024-01-30T04:16:05;16.73;;;16.02;;
41099;SDS011;26844;53.686;-6.346;2024-01-30T04:18:30;16.58;;;15.88;;
41099;SDS011;26844;53.686;-6.346;2024-01-30T04:20:56;17.23;;;16.52;;
41099;SDS011;26844;53.686;-6.346;2024-01-30T04:23:22;16.70;;;16.00;;
41099;SDS011;26844;53.686;-6.346;2024-01-30T04:25:47;16.10;;;15.48;;
41099;SDS011;26844;53.686;-6.346;2024-01-30T04:28:13;16.33;;;15.65;;
41099;SDS011;26844;53.686;-6.346;2024-01-30T04:30:38;15.63;;;15.02;;
41099;SDS011;26844;53.686;-6.346;2024-01-30T04:33:03;15.70;;;15.10;;
41099;SDS011;26844;53.686;-6.346;2024-01-30T04:35:29;14.60;;;14.00;;
41099;SDS011;26844;53.686;-6.346;2024-01-30T04:37:54;14.68;;;14.07;;
41099;SDS011;26844;53.686;-6.346;2024-01-30T04:40:20;14.80;;;14.20;;
41099;SDS011;26844;53.686;-6.346;2024-01-30T04:42:45;15.38;;;14.77;;
41099;SDS011;26844;53.686;-6.346;2024-01-30T04:45:10;15.82;;;15.23;;
41099;SDS011;26844;53.686;-6.346;2024-01-30T04:47:35;14.63;;;14.02;;
41099;SDS011;26844;53.686;-6.346;2024-01-30T04:50:01;15.60;;;15.00;;
41099;SDS011;26844;53.686;-6.346;2024-01-30T04:52:27;15.50;;;14.90;;
41099;SDS011;26844;53.686;-6.346;2024-01-30T04:54:52;15.13;;;14.52;;
41099;SDS011;26844;53.686;-6.346;2024-01-30T04:57:17;14.70;;;14.10;;
41099;SDS011;26844;53.686;-6.346;2024-01-30T04:59:43;16.10;;;15.50;;
41099;SDS011;26844;53.686;-6.346;2024-01-30T05:02:08;15.95;;;15.35;;
41099;SDS011;26844;53.686;-6.346;2024-01-30T05:04:33;15.85;;;15.25;;
41099;SDS011;26844;53.686;-6.346;2024-01-30T05:06:58;15.60;;;15.00;;
41099;SDS011;26844;53.686;-6.346;2024-01-30T05:09:24;15.65;;;15.05;;
41099;SDS011;26844;53.686;-6.346;2024-01-30T05:11:49;15.68;;;15.07;;
41099;SDS011;26844;53.686;-6.346;2024-01-30T05:14:14;15.55;;;14.95;;
41099;SDS011;26844;53.686;-6.346;2024-01-30T05:16:43;15.30;;;14.70;;
41099;SDS011;26844;53.686;-6.346;2024-01-30T05:19:11;15.55;;;14.95;;
41099;SDS011;26844;53.686;-6.346;2024-01-30T05:21:36;15.52;;;14.93;;
41099;SDS011;26844;53.686;-6.346;2024-01-30T05:24:02;15.82;;;15.23;;
41099;SDS011;26844;53.686;-6.346;2024-01-30T05:26:27;14.45;;;13.85;;
41099;SDS011;26844;53.686;-6.346;2024-01-30T05:28:52;14.57;;;13.98;;
41099;SDS011;26844;53.686;-6.346;2024-01-30T05:31:17;14.82;;;14.23;;
41099;SDS011;26844;53.686;-6.346;2024-01-30T05:33:43;13.80;;;13.30;;
41099;SDS011;26844;53.686;-6.346;2024-01-30T05:36:08;13.70;;;13.20;;
41099;SDS011;26844;53.686;-6.346;2024-01-30T05:38:36;14.55;;;13.95;;
41099;SDS011;26844;53.686;-6.346;2024-01-30T05:41:01;14.63;;;14.02;;
41099;SDS011;26844;53.686;-6.346;2024-01-30T05:43:26;13.85;;;13.35;;
41099;SDS011;26844;53.686;-6.346;2024-01-30T05:45:52;14.02;;;13.48;;
41099;SDS011;26844;53.686;-6.346;2024-01-30T05:48:17;13.95;;;13.45;;
41099;SDS011;26844;53.686;-6.346;2024-01-30T05:50:43;13.23;;;12.73;;
41099;SDS011;26844;53.686;-6.346;2024-01-30T05:53:08;13.43;;;12.93;;
41099;SDS011;26844;53.686;-6.346;2024-01-30T05:55:33;12.90;;;12.40;;
41099;SDS011;26844;53.686;-6.346;2024-01-30T05:57:58;14.30;;;13.70;;
41099;SDS011;26844;53.686;-6.346;2024-01-30T06:00:24;13.52;;;13.02;;
41099;SDS011;26844;53.686;-6.346;2024-01-30T06:02:49;13.35;;;12.85;;
41099;SDS011;26844;53.686;-6.346;2024-01-30T06:05:14;14.65;;;14.05;;
41099;SDS011;26844;53.686;-6.346;2024-01-30T06:07:39;14.27;;;13.68;;
41099;SDS011;26844;53.686;-6.346;2024-01-30T06:10:05;14.35;;;13.75;;
41099;SDS011;26844;53.686;-6.346;2024-01-30T06:12:30;14.43;;;13.82;;
41099;SDS011;26844;53.686;-6.346;2024-01-30T06:14:55;15.15;;;14.55;;
41099;SDS011;26844;53.686;-6.346;2024-01-30T06:17:22;14.43;;;13.82;;
41099;SDS011;26844;53.686;-6.346;2024-01-30T06:19:47;15.10;;;14.50;;
41099;SDS011;26844;53.686;-6.346;2024-01-30T06:22:12;15.05;;;14.45;;
41099;SDS011;26844;53.686;-6.346;2024-01-30T06:24:37;15.23;;;14.63;;
41099;SDS011;26844;53.686;-6.346;2024-01-30T06:27:03;15.95;;;15.35;;
41099;SDS011;26844;53.686;-6.346;2024-01-30T06:29:28;15.98;;;15.38;;
41099;SDS011;26844;53.686;-6.346;2024-01-30T06:31:54;16.20;;;15.50;;
41099;SDS011;26844;53.686;-6.346;2024-01-30T06:34:19;16.73;;;16.02;;
41099;SDS011;26844;53.686;-6.346;2024-01-30T06:36:45;17.15;;;16.45;;
41099;SDS011;26844;53.686;-6.346;2024-01-30T06:39:10;16.52;;;15.82;;
41099;SDS011;26844;53.686;-6.346;2024-01-30T06:41:35;17.50;;;16.80;;
41099;SDS011;26844;53.686;-6.346;2024-01-30T06:44:03;17.60;;;16.90;;
41099;SDS011;26844;53.686;-6.346;2024-01-30T06:46:31;18.30;;;17.50;;
41099;SDS011;26844;53.686;-6.346;2024-01-30T06:48:56;17.30;;;16.60;;
41099;SDS011;26844;53.686;-6.346;2024-01-30T06:51:21;17.55;;;16.85;;
41099;SDS011;26844;53.686;-6.346;2024-01-30T06:53:47;19.88;;;19.08;;
41099;SDS011;26844;53.686;-6.346;2024-01-30T06:56:12;18.25;;;17.45;;
41099;SDS011;26844;53.686;-6.346;2024-01-30T06:58:37;18.60;;;17.80;;
41099;SDS011;26844;53.686;-6.346;2024-01-30T07:01:02;19.17;;;18.38;;
41099;SDS011;26844;53.686;-6.346;2024-01-30T07:03:28;19.23;;;18.42;;
41099;SDS011;26844;53.686;-6.346;2024-01-30T07:05:53;19.20;;;18.40;;
41099;SDS011;26844;53.686;-6.346;2024-01-30T07:08:19;19.20;;;18.40;;
41099;SDS011;26844;53.686;-6.346;2024-01-30T07:10:45;19.23;;;18.35;;
41099;SDS011;26844;53.686;-6.346;2024-01-30T07:13:11;20.55;;;19.65;;
41099;SDS011;26844;53.686;-6.346;2024-01-30T07:15:36;20.50;;;19.60;;
41099;SDS011;26844;53.686;-6.346;2024-01-30T07:18:02;20.90;;;20.00;;
41099;SDS011;26844;53.686;-6.346;2024-01-30T07:20:28;20.48;;;19.58;;
41099;SDS011;26844;53.686;-6.346;2024-01-30T07:22:55;20.40;;;19.50;;
41099;SDS011;26844;53.686;-6.346;2024-01-30T07:25:20;20.15;;;19.25;;
41099;SDS011;26844;53.686;-6.346;2024-01-30T07:27:46;20.50;;;19.60;;
41099;SDS011;26844;53.686;-6.346;2024-01-30T07:30:12;20.00;;;19.10;;
41099;SDS011;26844;53.686;-6.346;2024-01-30T07:32:37;20.20;;;19.30;;
41099;SDS011;26844;53.686;-6.346;2024-01-30T07:35:02;20.15;;;19.25;;
41099;SDS011;26844;53.686;-6.346;2024-01-30T07:37:28;19.83;;;18.92;;
41099;SDS011;26844;53.686;-6.346;2024-01-30T07:39:53;20.50;;;19.50;;
41099;SDS011;26844;53.686;-6.346;2024-01-30T07:42:19;19.90;;;19.00;;
41099;SDS011;26844;53.686;-6.346;2024-01-30T07:44:44;20.15;;;19.25;;
41099;SDS011;26844;53.686;-6.346;2024-01-30T07:47:09;20.38;;;19.45;;
41099;SDS011;26844;53.686;-6.346;2024-01-30T07:49:34;20.67;;;19.67;;
41099;SDS011;26844;53.686;-6.346;2024-01-30T07:52:00;21.42;;;20.42;;
41099;SDS011;26844;53.686;-6.346;2024-01-30T07:54:25;20.45;;;19.50;;
41099;SDS011;26844;53.686;-6.346;2024-01-30T07:56:50;20.08;;;19.17;;
41099;SDS011;26844;53.686;-6.346;2024-01-30T07:59:15;20.40;;;19.40;;
41099;SDS011;26844;53.686;-6.346;2024-01-30T08:01:41;20.90;;;19.90;;
41099;SDS011;26844;53.686;-6.346;2024-01-30T08:04:06;20.60;;;19.60;;
41099;SDS011;26844;53.686;-6.346;2024-01-30T08:06:31;20.77;;;19.77;;
41099;SDS011;26844;53.686;-6.346;2024-01-30T08:08:57;21.17;;;20.17;;
41099;SDS011;26844;53.686;-6.346;2024-01-30T08:11:24;21.15;;;20.15;;
41099;SDS011;26844;53.686;-6.346;2024-01-30T08:13:51;21.40;;;20.40;;
41099;SDS011;26844;53.686;-6.346;2024-01-30T08:16:16;20.80;;;19.80;;
41099;SDS011;26844;53.686;-6.346;2024-01-30T08:18:42;21.20;;;20.20;;
41099;SDS011;26844;53.686;-6.346;2024-01-30T08:21:07;20.73;;;19.73;;
41099;SDS011;26844;53.686;-6.346;2024-01-30T08:23:32;20.73;;;19.73;;
41099;SDS011;26844;53.686;-6.346;2024-01-30T08:25:58;20.33;;;19.33;;
41099;SDS011;26844;53.686;-6.346;2024-01-30T08:28:23;21.42;;;20.33;;
41099;SDS011;26844;53.686;-6.346;2024-01-30T08:30:48;21.13;;;20.02;;
41099;SDS011;26844;53.686;-6.346;2024-01-30T08:33:14;20.95;;;19.95;;
41099;SDS011;26844;53.686;-6.346;2024-01-30T08:35:39;20.92;;;19.83;;
41099;SDS011;26844;53.686;-6.346;2024-01-30T08:38:04;20.92;;;19.92;;
41099;SDS011;26844;53.686;-6.346;2024-01-30T08:40:29;21.00;;;20.00;;
41099;SDS011;26844;53.686;-6.346;2024-01-30T08:42:55;22.55;;;21.45;;
41099;SDS011;26844;53.686;-6.346;2024-01-30T08:45:21;22.55;;;21.45;;
41099;SDS011;26844;53.686;-6.346;2024-01-30T08:47:46;23.50;;;22.40;;
41099;SDS011;26844;53.686;-6.346;2024-01-30T08:50:11;21.98;;;20.88;;
41099;SDS011;26844;53.686;-6.346;2024-01-30T08:52:36;23.73;;;22.63;;
41099;SDS011;26844;53.686;-6.346;2024-01-30T08:55:01;23.05;;;21.95;;
41099;SDS011;26844;53.686;-6.346;2024-01-30T08:57:27;21.02;;;20.02;;
41099;SDS011;26844;53.686;-6.346;2024-01-30T08:59:55;21.33;;;20.23;;
41099;SDS011;26844;53.686;-6.346;2024-01-30T09:02:20;22.80;;;21.70;;
41099;SDS011;26844;53.686;-6.346;2024-01-30T09:04:46;21.92;;;20.83;;
41099;SDS011;26844;53.686;-6.346;2024-01-30T09:07:11;23.20;;;22.10;;
41099;SDS011;26844;53.686;-6.346;2024-01-30T09:09:38;23.10;;;22.00;;
41099;SDS011;26844;53.686;-6.346;2024-01-30T09:12:05;23.38;;;22.27;;
41099;SDS011;26844;53.686;-6.346;2024-01-30T09:14:33;23.67;;;22.58;;
41099;SDS011;26844;53.686;-6.346;2024-01-30T09:16:58;23.27;;;22.08;;
41099;SDS011;26844;53.686;-6.346;2024-01-30T09:19:23;23.33;;;22.23;;
41099;SDS011;26844;53.686;-6.346;2024-01-30T09:21:49;22.98;;;21.88;;
41099;SDS011;26844;53.686;-6.346;2024-01-30T09:24:14;21.65;;;20.55;;
41099;SDS011;26844;53.686;-6.346;2024-01-30T09:26:39;22.25;;;21.15;;
41099;SDS011;26844;53.686;-6.346;2024-01-30T09:29:04;22.17;;;21.08;;
41099;SDS011;26844;53.686;-6.346;2024-01-30T09:31:29;20.05;;;19.05;;
41099;SDS011;26844;53.686;-6.346;2024-01-30T09:33:55;20.30;;;19.30;;
41099;SDS011;26844;53.686;-6.346;2024-01-30T09:36:20;20.65;;;19.65;;
41099;SDS011;26844;53.686;-6.346;2024-01-30T09:38:45;20.60;;;19.60;;
41099;SDS011;26844;53.686;-6.346;2024-01-30T09:41:11;20.73;;;19.73;;
41099;SDS011;26844;53.686;-6.346;2024-01-30T09:43:36;19.92;;;19.02;;
41099;SDS011;26844;53.686;-6.346;2024-01-30T09:46:02;20.60;;;19.60;;
41099;SDS011;26844;53.686;-6.346;2024-01-30T09:48:29;20.20;;;19.30;;
41099;SDS011;26844;53.686;-6.346;2024-01-30T09:50:54;20.00;;;19.10;;
41099;SDS011;26844;53.686;-6.346;2024-01-30T09:53:21;20.58;;;19.58;;
41099;SDS011;26844;53.686;-6.346;2024-01-30T09:55:47;20.38;;;19.48;;
41099;SDS011;26844;53.686;-6.346;2024-01-30T09:58:12;20.38;;;19.48;;
41099;SDS011;26844;53.686;-6.346;2024-01-30T10:00:38;19.85;;;18.95;;
41099;SDS011;26844;53.686;-6.346;2024-01-30T10:03:03;20.10;;;19.20;;
41099;SDS011;26844;53.686;-6.346;2024-01-30T10:05:29;20.40;;;19.50;;
41099;SDS011;26844;53.686;-6.346;2024-01-30T10:07:56;20.75;;;19.85;;
41099;SDS011;26844;53.686;-6.346;2024-01-30T10:10:22;19.55;;;18.65;;
41099;SDS011;26844;53.686;-6.346;2024-01-30T10:12:48;20.33;;;19.42;;
41099;SDS011;26844;53.686;-6.346;2024-01-30T10:15:14;19.73;;;18.83;;
41099;SDS011;26844;53.686;-6.346;2024-01-30T10:17:39;20.25;;;19.35;;
41099;SDS011;26844;53.686;-6.346;2024-01-30T10:20:05;19.67;;;18.77;;
41099;SDS011;26844;53.686;-6.346;2024-01-30T10:22:30;19.67;;;18.77;;
41099;SDS011;26844;53.686;-6.346;2024-01-30T10:24:55;19.15;;;18.35;;
41099;SDS011;26844;53.686;-6.346;2024-01-30T10:27:27;19.13;;;18.33;;
41099;SDS011;26844;53.686;-6.346;2024-01-30T10:29:52;19.63;;;18.83;;
41099;SDS011;26844;53.686;-6.346;2024-01-30T10:32:21;20.00;;;19.10;;
41099;SDS011;26844;53.686;-6.346;2024-01-30T10:34:46;18.90;;;18.10;;
41099;SDS011;26844;53.686;-6.346;2024-01-30T10:37:11;18.70;;;17.90;;
41099;SDS011;26844;53.686;-6.346;2024-01-30T10:39:41;19.27;;;18.48;;
41099;SDS011;26844;53.686;-6.346;2024-01-30T10:42:07;18.63;;;17.83;;
41099;SDS011;26844;53.686;-6.346;2024-01-30T10:44:43;18.55;;;17.75;;
41099;SDS011;26844;53.686;-6.346;2024-01-30T10:47:12;18.90;;;18.10;;
41099;SDS011;26844;53.686;-6.346;2024-01-30T10:49:40;18.92;;;18.13;;
41099;SDS011;26844;53.686;-6.346;2024-01-30T10:52:07;19.33;;;18.52;;
41099;SDS011;26844;53.686;-6.346;2024-01-30T10:54:34;17.70;;;17.00;;
41099;SDS011;26844;53.686;-6.346;2024-01-30T10:56:59;17.50;;;16.80;;
41099;SDS011;26844;53.686;-6.346;2024-01-30T10:59:26;18.38;;;17.58;;
41099;SDS011;26844;53.686;-6.346;2024-01-30T11:01:52;18.33;;;17.52;;
41099;SDS011;26844;53.686;-6.346;2024-01-30T11:04:18;18.10;;;17.35;;
41099;SDS011;26844;53.686;-6.346;2024-01-30T11:06:43;17.73;;;17.02;;
41099;SDS011;26844;53.686;-6.346;2024-01-30T11:09:10;17.42;;;16.73;;
41099;SDS011;26844;53.686;-6.346;2024-01-30T11:14:14;16.60;;;15.90;;
41099;SDS011;26844;53.686;-6.346;2024-01-30T11:16:40;16.50;;;15.80;;
41099;SDS011;26844;53.686;-6.346;2024-01-30T11:19:05;16.63;;;15.93;;
41099;SDS011;26844;53.686;-6.346;2024-01-30T11:21:40;16.20;;;15.50;;
41099;SDS011;26844;53.686;-6.346;2024-01-30T11:24:05;15.40;;;14.80;;
41099;SDS011;26844;53.686;-6.346;2024-01-30T11:26:31;16.65;;;15.95;;
41099;SDS011;26844;53.686;-6.346;2024-01-30T11:28:56;14.88;;;14.27;;
41099;SDS011;26844;53.686;-6.346;2024-01-30T11:31:22;15.43;;;14.82;;
41099;SDS011;26844;53.686;-6.346;2024-01-30T11:33:47;14.35;;;13.75;;
41099;SDS011;26844;53.686;-6.346;2024-01-30T11:36:17;14.85;;;14.25;;
41099;SDS011;26844;53.686;-6.346;2024-01-30T11:38:43;14.85;;;14.25;;
41099;SDS011;26844;53.686;-6.346;2024-01-30T11:41:10;14.68;;;14.07;;
41099;SDS011;26844;53.686;-6.346;2024-01-30T11:43:35;14.55;;;13.95;;
41099;SDS011;26844;53.686;-6.346;2024-01-30T11:46:00;15.00;;;14.40;;
41099;SDS011;26844;53.686;-6.346;2024-01-30T11:48:26;13.75;;;13.25;;
41099;SDS011;26844;53.686;-6.346;2024-01-30T11:50:51;14.77;;;14.18;;
41099;SDS011;26844;53.686;-6.346;2024-01-30T11:53:17;14.00;;;13.48;;
41099;SDS011;26844;53.686;-6.346;2024-01-30T11:55:48;13.07;;;12.57;;
41099;SDS011;26844;53.686;-6.346;2024-01-30T11:58:14;12.65;;;12.15;;
41099;SDS011;26844;53.686;-6.346;2024-01-30T12:00:39;13.27;;;12.77;;
41099;SDS011;26844;53.686;-6.346;2024-01-30T12:03:04;12.30;;;11.80;;
41099;SDS011;26844;53.686;-6.346;2024-01-30T12:05:31;12.13;;;11.63;;
41099;SDS011;26844;53.686;-6.346;2024-01-30T12:07:57;11.02;;;10.63;;
41099;SDS011;26844;53.686;-6.346;2024-01-30T12:10:24;11.43;;;11.02;;
41099;SDS011;26844;53.686;-6.346;2024-01-30T12:12:49;10.68;;;10.27;;
41099;SDS011;26844;53.686;-6.346;2024-01-30T12:15:15;10.23;;;9.82;;
41099;SDS011;26844;53.686;-6.346;2024-01-30T12:17:41;9.88;;;9.48;;
41099;SDS011;26844;53.686;-6.346;2024-01-30T12:20:07;9.27;;;8.98;;
41099;SDS011;26844;53.686;-6.346;2024-01-30T12:22:51;8.95;;;8.65;;
41099;SDS011;26844;53.686;-6.346;2024-01-30T12:25:17;10.25;;;9.85;;
41099;SDS011;26844;53.686;-6.346;2024-01-30T12:27:43;8.82;;;8.52;;
41099;SDS011;26844;53.686;-6.346;2024-01-30T12:30:09;9.25;;;8.95;;
41099;SDS011;26844;53.686;-6.346;2024-01-30T12:32:42;8.73;;;8.43;;
41099;SDS011;26844;53.686;-6.346;2024-01-30T12:35:10;8.35;;;8.05;;
41099;SDS011;26844;53.686;-6.346;2024-01-30T12:37:36;7.75;;;7.45;;
41099;SDS011;26844;53.686;-6.346;2024-01-30T12:40:01;6.90;;;6.70;;
41099;SDS011;26844;53.686;-6.346;2024-01-30T12:42:27;7.78;;;7.47;;
41099;SDS011;26844;53.686;-6.346;2024-01-30T12:44:52;7.47;;;7.18;;
41099;SDS011;26844;53.686;-6.346;2024-01-30T12:47:18;7.90;;;7.60;;
41099;SDS011;26844;53.686;-6.346;2024-01-30T12:49:43;7.60;;;7.30;;
41099;SDS011;26844;53.686;-6.346;2024-01-30T12:52:09;6.70;;;6.50;;
41099;SDS011;26844;53.686;-6.346;2024-01-30T12:54:35;7.68;;;7.38;;
41099;SDS011;26844;53.686;-6.346;2024-01-30T12:57:00;7.55;;;7.25;;
41099;SDS011;26844;53.686;-6.346;2024-01-30T12:59:25;5.72;;;5.53;;
41099;SDS011;26844;53.686;-6.346;2024-01-30T13:01:50;6.57;;;6.38;;
41099;SDS011;26844;53.686;-6.346;2024-01-30T13:04:16;6.30;;;6.10;;
41099;SDS011;26844;53.686;-6.346;2024-01-30T13:06:41;7.63;;;7.32;;
41099;SDS011;26844;53.686;-6.346;2024-01-30T13:09:07;6.10;;;5.90;;
41099;SDS011;26844;53.686;-6.346;2024-01-30T13:11:32;6.35;;;6.15;;
41099;SDS011;26844;53.686;-6.346;2024-01-30T13:13:57;6.43;;;6.22;;
41099;SDS011;26844;53.686;-6.346;2024-01-30T13:16:23;7.38;;;7.07;;
41099;SDS011;26844;53.686;-6.346;2024-01-30T13:18:48;7.55;;;7.25;;
41099;SDS011;26844;53.686;-6.346;2024-01-30T13:21:13;8.10;;;7.80;;
41099;SDS011;26844;53.686;-6.346;2024-01-30T13:23:39;7.50;;;7.20;;
41099;SDS011;26844;53.686;-6.346;2024-01-30T13:26:04;7.63;;;7.32;;
41099;SDS011;26844;53.686;-6.346;2024-01-30T13:28:29;7.70;;;7.40;;
41099;SDS011;26844;53.686;-6.346;2024-01-30T13:30:54;8.00;;;7.70;;
41099;SDS011;26844;53.686;-6.346;2024-01-30T13:33:20;7.75;;;7.45;;
41099;SDS011;26844;53.686;-6.346;2024-01-30T13:35:45;8.32;;;8.02;;
41099;SDS011;26844;53.686;-6.346;2024-01-30T13:38:10;8.13;;;7.82;;
41099;SDS011;26844;53.686;-6.346;2024-01-30T13:40:35;7.78;;;7.47;;
41099;SDS011;26844;53.686;-6.346;2024-01-30T13:43:01;8.73;;;8.43;;
41099;SDS011;26844;53.686;-6.346;2024-01-30T13:45:26;8.90;;;8.60;;
41099;SDS011;26844;53.686;-6.346;2024-01-30T13:47:52;8.57;;;8.27;;
41099;SDS011;26844;53.686;-6.346;2024-01-30T13:50:17;7.63;;;7.32;;
41099;SDS011;26844;53.686;-6.346;2024-01-30T13:52:43;7.30;;;7.00;;
41099;SDS011;26844;53.686;-6.346;2024-01-30T13:55:08;7.75;;;7.45;;
41099;SDS011;26844;53.686;-6.346;2024-01-30T13:57:34;7.88;;;7.57;;
41099;SDS011;26844;53.686;-6.346;2024-01-30T14:00:01;8.35;;;8.05;;
41099;SDS011;26844;53.686;-6.346;2024-01-30T14:02:26;7.82;;;7.53;;
41099;SDS011;26844;53.686;-6.346;2024-01-30T14:04:51;6.68;;;6.47;;
41099;SDS011;26844;53.686;-6.346;2024-01-30T14:07:16;6.75;;;6.55;;
41099;SDS011;26844;53.686;-6.346;2024-01-30T14:09:43;5.97;;;5.78;;
41099;SDS011;26844;53.686;-6.346;2024-01-30T14:12:08;5.60;;;5.40;;
41099;SDS011;26844;53.686;-6.346;2024-01-30T14:14:34;5.65;;;5.45;;